createdAt,value
2022-12-11T00:00:31.686Z,32.35
2022-12-11T00:02:59.426Z,32.83
2022-12-11T00:05:27.119Z,31.10
2022-12-11T00:07:56.491Z,32.33
2022-12-11T00:10:25.853Z,33.28
2022-12-11T00:12:53.573Z,32.53
2022-12-11T00:15:21.314Z,32.75
2022-12-11T00:17:49.103Z,29.85
2022-12-11T00:20:17.188Z,31.58
2022-12-11T00:22:44.874Z,30.48
2022-12-11T00:25:12.859Z,32.35
2022-12-11T00:27:42.094Z,30.50
2022-12-11T00:30:10.979Z,32.45
2022-12-11T00:32:38.667Z,32.08
2022-12-11T00:35:06.858Z,32.60
2022-12-11T00:37:34.584Z,32.00
2022-12-11T00:40:02.385Z,32.35
2022-12-11T00:42:30.123Z,29.25
2022-12-11T00:44:59.165Z,30.92
2022-12-11T00:47:29.466Z,29.50
2022-12-11T00:50:00.314Z,28.30
2022-12-11T00:52:28.001Z,27.20
2022-12-11T00:54:55.643Z,28.88
2022-12-11T00:57:23.964Z,26.85
2022-12-11T00:59:51.635Z,28.02
2022-12-11T01:02:20.681Z,27.42
2022-12-11T01:04:48.341Z,28.48
2022-12-11T01:07:16.009Z,28.13
2022-12-11T01:10:01.084Z,29.42
2022-12-11T01:12:28.808Z,28.30
2022-12-11T01:14:56.535Z,26.27
2022-12-11T01:17:25.592Z,27.70
2022-12-11T01:19:54.657Z,27.70
2022-12-11T01:22:22.534Z,27.42
2022-12-11T01:24:50.226Z,27.88
2022-12-11T01:27:18.420Z,26.90
2022-12-11T01:29:48.691Z,27.52
2022-12-11T01:32:16.472Z,28.48
2022-12-11T01:34:45.531Z,27.20
2022-12-11T01:37:15.897Z,28.92
2022-12-11T01:39:43.600Z,27.88
2022-12-11T01:42:17.447Z,27.30
2022-12-11T01:45:27.923Z,28.35
2022-12-11T01:48:03.810Z,27.45
2022-12-11T01:50:36.005Z,27.88
2022-12-11T01:53:06.993Z,28.02
2022-12-11T01:55:35.556Z,26.95
2022-12-11T01:58:03.788Z,27.02
2022-12-11T02:00:31.503Z,27.05
2022-12-11T02:02:59.233Z,26.52
2022-12-11T02:05:28.726Z,25.23
2022-12-11T02:08:02.503Z,24.77
2022-12-11T02:10:42.780Z,26.58
2022-12-11T02:13:16.210Z,25.20
2022-12-11T02:15:50.944Z,26.08
2022-12-11T02:18:26.471Z,24.17
2022-12-11T02:20:59.823Z,23.58
2022-12-11T02:23:45.654Z,25.25
2022-12-11T02:26:26.026Z,23.55
2022-12-11T02:28:58.419Z,25.50
2022-12-11T02:31:33.395Z,25.15
2022-12-11T02:34:09.198Z,24.58
2022-12-11T02:36:41.175Z,23.85
2022-12-11T02:39:13.403Z,24.05
2022-12-11T02:41:44.026Z,23.80
2022-12-11T02:44:17.214Z,23.67
2022-12-11T02:46:45.847Z,23.58
2022-12-11T02:49:16.542Z,25.15
2022-12-11T02:51:45.268Z,22.73
2022-12-11T02:54:17.429Z,23.33
2022-12-11T02:56:52.239Z,23.02
2022-12-11T02:59:25.273Z,23.25
2022-12-11T03:01:53.190Z,23.15
2022-12-11T03:04:24.788Z,25.38
2022-12-11T03:06:55.408Z,21.95
2022-12-11T03:09:23.325Z,24.10
2022-12-11T03:11:51.007Z,22.92
2022-12-11T03:14:18.893Z,22.42
2022-12-11T03:16:59.745Z,21.52
2022-12-11T03:19:33.101Z,22.55
2022-12-11T03:22:09.734Z,21.25
2022-12-11T03:24:42.206Z,22.20
2022-12-11T03:27:20.705Z,22.10
2022-12-11T03:29:54.522Z,21.40
2022-12-11T03:32:29.642Z,23.05
2022-12-11T03:35:01.697Z,23.50
2022-12-11T03:37:33.510Z,22.85
2022-12-11T03:40:06.987Z,23.30
2022-12-11T03:42:36.448Z,23.08
2022-12-11T03:45:08.655Z,21.23
2022-12-11T03:47:42.460Z,22.33
2022-12-11T03:50:12.409Z,21.42
2022-12-11T03:52:45.759Z,21.05
2022-12-11T03:55:18.518Z,22.25
2022-12-11T03:57:46.609Z,20.77
2022-12-11T04:00:18.061Z,20.92
2022-12-11T04:03:13.246Z,21.45
2022-12-11T04:05:42.701Z,21.20
2022-12-11T04:08:11.180Z,21.13
2022-12-11T04:13:25.093Z,20.30
2022-12-11T04:15:51.840Z,19.77
2022-12-11T04:18:46.841Z,19.52
2022-12-11T04:21:36.409Z,21.27
2022-12-11T04:24:16.564Z,21.00
2022-12-11T04:26:44.532Z,20.23
2022-12-11T04:29:12.654Z,21.35
2022-12-11T04:31:40.895Z,21.20
2022-12-11T04:34:10.194Z,19.77
2022-12-11T04:36:38.079Z,20.98
2022-12-11T04:39:06.894Z,22.00
2022-12-11T04:41:35.129Z,20.88
2022-12-11T04:44:03.080Z,20.25
2022-12-11T04:46:30.856Z,22.05
2022-12-11T04:49:00.215Z,21.77
2022-12-11T04:51:32.542Z,22.27
2022-12-11T04:54:00.490Z,21.55
2022-12-11T04:56:28.332Z,21.48
2022-12-11T04:58:55.984Z,22.77
2022-12-11T05:01:25.684Z,20.88
2022-12-11T05:03:54.930Z,21.38
2022-12-11T05:06:22.673Z,22.40
2022-12-11T05:08:51.800Z,21.13
2022-12-11T05:11:19.565Z,23.23
2022-12-11T05:13:47.900Z,22.02
2022-12-11T05:16:17.766Z,22.33
2022-12-11T05:18:47.414Z,22.10
2022-12-11T05:21:16.266Z,22.70
2022-12-11T05:23:44.056Z,21.35
2022-12-11T05:26:16.055Z,22.50
2022-12-11T05:28:45.093Z,22.05
2022-12-11T05:31:17.786Z,22.08
2022-12-11T05:33:45.723Z,21.92
2022-12-11T05:36:17.745Z,19.35
2022-12-11T05:38:45.519Z,20.80
2022-12-11T05:41:17.880Z,20.42
2022-12-11T05:43:49.166Z,19.48
2022-12-11T05:46:18.891Z,20.20
2022-12-11T05:48:48.647Z,18.73
2022-12-11T05:51:18.125Z,18.48
2022-12-11T05:53:47.611Z,18.63
2022-12-11T05:56:18.786Z,18.55
2022-12-11T05:58:50.980Z,18.15
2022-12-11T06:01:23.083Z,17.17
2022-12-11T06:03:54.349Z,18.65
2022-12-11T06:06:22.156Z,17.88
2022-12-11T06:08:51.019Z,18.65
2022-12-11T06:11:23.987Z,17.88
2022-12-11T06:13:52.652Z,17.38
2022-12-11T06:16:21.082Z,17.73
2022-12-11T06:18:49.081Z,17.88
2022-12-11T06:21:19.398Z,17.92
2022-12-11T06:23:48.979Z,17.35
2022-12-11T06:26:17.738Z,19.05
2022-12-11T06:28:47.654Z,18.35
2022-12-11T06:31:18.335Z,18.52
2022-12-11T06:33:46.210Z,20.23
2022-12-11T06:36:16.473Z,18.50
2022-12-11T06:38:47.691Z,19.13
2022-12-11T06:41:16.301Z,19.92
2022-12-11T06:43:44.260Z,18.95
2022-12-11T06:46:15.366Z,21.05
2022-12-11T06:48:43.655Z,19.73
2022-12-11T06:51:13.985Z,20.40
2022-12-11T06:53:44.193Z,21.58
2022-12-11T06:56:14.107Z,21.83
2022-12-11T06:58:44.304Z,19.83
2022-12-11T07:01:18.588Z,20.98
2022-12-11T07:03:46.926Z,21.35
2022-12-11T07:06:15.447Z,20.80
2022-12-11T07:08:43.629Z,20.98
2022-12-11T07:11:13.718Z,21.48
2022-12-11T07:13:42.460Z,20.52
2022-12-11T07:16:12.594Z,20.15
2022-12-11T07:18:43.180Z,22.23
2022-12-11T07:21:12.889Z,22.63
2022-12-11T07:23:41.165Z,22.17
2022-12-11T07:26:14.275Z,21.88
2022-12-11T07:28:42.849Z,21.40
2022-12-11T07:31:13.538Z,21.30
2022-12-11T07:33:43.223Z,21.33
2022-12-11T07:36:14.005Z,21.45
2022-12-11T07:38:42.039Z,21.15
2022-12-11T07:41:15.733Z,21.73
2022-12-11T07:43:44.108Z,21.08
2022-12-11T07:46:14.483Z,21.55
2022-12-11T07:48:45.020Z,20.17
2022-12-11T07:51:14.997Z,19.90
2022-12-11T07:53:48.429Z,19.98
2022-12-11T07:56:16.691Z,20.15
2022-12-11T07:58:44.482Z,19.63
2022-12-11T08:01:15.935Z,21.25
2022-12-11T08:03:46.730Z,20.75
2022-12-11T08:06:14.799Z,19.25
2022-12-11T08:08:43.195Z,21.02
2022-12-11T08:11:14.112Z,20.48
2022-12-11T08:13:42.841Z,20.30
2022-12-11T08:16:15.950Z,19.48
2022-12-11T08:18:47.135Z,21.35
2022-12-11T08:21:16.512Z,20.38
2022-12-11T08:23:44.826Z,20.70
2022-12-11T08:26:15.039Z,20.30
2022-12-11T08:28:43.081Z,20.02
2022-12-11T08:31:12.522Z,18.98
2022-12-11T08:33:41.782Z,19.77
2022-12-11T08:36:13.990Z,18.60
2022-12-11T08:38:43.453Z,19.25
2022-12-11T08:41:12.285Z,18.88
2022-12-11T08:43:40.109Z,19.38
2022-12-11T08:46:08.594Z,18.75
2022-12-11T08:48:36.679Z,18.98
2022-12-11T08:51:08.105Z,20.02
2022-12-11T08:53:37.296Z,19.88
2022-12-11T08:56:06.933Z,18.08
2022-12-11T08:58:34.735Z,19.27
2022-12-11T09:01:08.174Z,17.77
2022-12-11T09:03:39.883Z,17.70
2022-12-11T09:06:10.971Z,18.33
2022-12-11T09:08:47.222Z,18.25
2022-12-11T09:11:21.237Z,17.40
2022-12-11T09:13:50.107Z,17.17
2022-12-11T09:16:21.516Z,17.33
2022-12-11T09:18:51.059Z,16.40
2022-12-11T09:21:21.083Z,16.52
2022-12-11T09:23:50.298Z,14.10
2022-12-11T09:26:20.050Z,14.52
2022-12-11T09:28:48.264Z,15.23
2022-12-11T09:31:18.024Z,14.20
2022-12-11T09:33:46.371Z,14.18
2022-12-11T09:36:14.236Z,13.35
2022-12-11T09:38:43.401Z,14.75
2022-12-11T09:41:30.635Z,14.95
2022-12-11T09:44:06.761Z,12.98
2022-12-11T09:46:36.686Z,12.30
2022-12-11T09:49:13.427Z,12.48
2022-12-11T09:51:45.329Z,13.27
2022-12-11T09:54:15.217Z,12.98
2022-12-11T09:56:52.524Z,12.43
2022-12-11T09:59:24.857Z,11.40
2022-12-11T10:02:00.099Z,12.82
2022-12-11T10:04:40.882Z,11.65
2022-12-11T10:07:17.013Z,13.05
2022-12-11T10:09:51.269Z,11.40
2022-12-11T10:12:31.500Z,11.52
2022-12-11T10:15:20.716Z,12.57
2022-12-11T10:17:49.096Z,11.38
2022-12-11T10:20:23.314Z,11.82
2022-12-11T10:22:52.968Z,12.75
2022-12-11T10:25:22.960Z,11.25
2022-12-11T10:27:52.317Z,10.90
2022-12-11T10:30:21.792Z,10.85
2022-12-11T10:32:55.343Z,11.52
2022-12-11T10:35:33.120Z,12.13
2022-12-11T10:38:11.837Z,11.82
2022-12-11T10:40:41.052Z,10.88
2022-12-11T10:43:10.622Z,11.07
2022-12-11T10:45:38.545Z,11.23
2022-12-11T10:48:08.790Z,11.38
2022-12-11T10:50:36.890Z,11.23
2022-12-11T10:53:04.740Z,11.27
2022-12-11T10:55:41.698Z,10.95
2022-12-11T10:58:19.687Z,11.07
2022-12-11T11:00:47.866Z,12.23
2022-12-11T11:03:23.865Z,11.45
2022-12-11T11:06:02.425Z,11.18
2022-12-11T11:08:39.947Z,10.13
2022-12-11T11:11:17.198Z,11.00
2022-12-11T11:13:48.505Z,10.35
2022-12-11T11:16:18.567Z,11.43
2022-12-11T11:18:57.062Z,12.15
2022-12-11T11:21:28.383Z,10.63
2022-12-11T11:23:56.128Z,16.65
2022-12-11T11:26:30.679Z,16.80
2022-12-11T11:29:08.043Z,11.85
2022-12-11T11:31:36.765Z,12.50
2022-12-11T11:34:12.953Z,11.30
2022-12-11T11:36:40.643Z,11.82
2022-12-11T11:39:20.861Z,11.45
2022-12-11T11:41:53.471Z,11.80
2022-12-11T11:44:29.970Z,12.82
2022-12-11T11:47:02.109Z,13.13
2022-12-11T11:49:46.500Z,12.75
2022-12-11T11:52:19.315Z,11.98
2022-12-11T11:54:53.999Z,11.75
2022-12-11T11:57:30.345Z,13.77
2022-12-11T12:00:10.786Z,15.38
2022-12-11T12:02:38.832Z,12.90
2022-12-11T12:05:07.229Z,11.90
2022-12-11T12:07:41.556Z,11.18
2022-12-11T12:10:21.924Z,11.55
2022-12-11T12:12:59.524Z,12.07
2022-12-11T12:15:39.854Z,9.75
2022-12-11T12:18:16.540Z,10.20
2022-12-11T12:20:53.523Z,11.32
2022-12-11T12:23:37.078Z,10.90
2022-12-11T12:26:14.111Z,11.15
2022-12-11T12:28:49.034Z,11.40
2022-12-11T12:31:31.506Z,10.45
2022-12-11T12:34:07.761Z,11.23
2022-12-11T12:36:46.878Z,10.85
2022-12-11T12:39:29.674Z,10.43
2022-12-11T12:42:07.754Z,10.30
2022-12-11T12:44:43.488Z,10.63
2022-12-11T12:47:16.309Z,10.38
2022-12-11T12:49:46.652Z,10.38
2022-12-11T12:52:17.857Z,9.35
2022-12-11T12:55:07.139Z,9.40
2022-12-11T12:57:39.650Z,8.43
2022-12-11T13:00:13.198Z,8.55
2022-12-11T13:02:51.688Z,8.82
2022-12-11T13:05:23.587Z,9.60
2022-12-11T13:07:54.720Z,8.57
2022-12-11T13:10:32.909Z,9.93
2022-12-11T13:13:02.255Z,9.73
2022-12-11T13:15:38.985Z,9.30
2022-12-11T13:18:33.263Z,9.48
2022-12-11T13:21:00.986Z,9.65
2022-12-11T13:23:31.063Z,9.93
2022-12-11T13:26:00.219Z,10.18
2022-12-11T13:28:31.591Z,9.40
2022-12-11T13:31:04.194Z,9.18
2022-12-11T13:33:34.475Z,8.88
2022-12-11T13:36:25.012Z,9.32
2022-12-11T13:38:59.190Z,9.65
2022-12-11T13:41:28.555Z,9.50
2022-12-11T13:43:58.884Z,10.15
2022-12-11T13:46:29.245Z,10.43
2022-12-11T13:49:03.088Z,11.23
2022-12-11T13:51:35.009Z,11.73
2022-12-11T13:54:20.486Z,10.05
2022-12-11T13:56:59.999Z,10.63
2022-12-11T13:59:30.572Z,13.98
2022-12-11T14:02:02.259Z,10.77
2022-12-11T14:04:32.764Z,10.50
2022-12-11T14:07:00.547Z,9.15
2022-12-11T14:09:29.512Z,9.57
2022-12-11T14:12:00.105Z,9.88
2022-12-11T14:14:36.899Z,10.35
2022-12-11T14:17:05.133Z,10.32
2022-12-11T14:19:34.499Z,10.95
2022-12-11T14:22:04.169Z,10.82
2022-12-11T14:24:32.652Z,10.05
2022-12-11T14:27:01.244Z,10.95
2022-12-11T14:29:31.026Z,11.15
2022-12-11T14:32:03.839Z,11.07
2022-12-11T14:34:36.041Z,10.02
2022-12-11T14:37:07.113Z,10.43
2022-12-11T14:39:39.542Z,10.07
2022-12-11T14:42:11.943Z,9.85
2022-12-11T14:44:48.980Z,11.38
2022-12-11T14:47:20.848Z,10.93
2022-12-11T14:49:54.245Z,12.55
2022-12-11T14:52:26.272Z,10.93
2022-12-11T14:54:57.963Z,9.88
2022-12-11T14:57:30.412Z,10.55
2022-12-11T15:00:00.581Z,10.63
2022-12-11T15:02:32.485Z,9.57
2022-12-11T15:05:18.042Z,10.82
2022-12-11T15:07:56.620Z,11.85
2022-12-11T15:10:27.690Z,11.30
2022-12-11T15:12:58.866Z,10.85
2022-12-11T15:15:28.963Z,11.30
2022-12-11T15:18:03.100Z,11.27
2022-12-11T15:20:32.332Z,11.60
2022-12-11T15:23:02.748Z,11.77
2022-12-11T15:25:32.546Z,12.43
2022-12-11T15:28:02.197Z,13.07
2022-12-11T15:30:35.809Z,12.35
2022-12-11T15:33:05.950Z,14.13
2022-12-11T15:35:35.031Z,13.60
2022-12-11T15:38:02.785Z,14.15
2022-12-11T15:40:31.070Z,13.75
2022-12-11T15:43:03.223Z,14.60
2022-12-11T15:45:30.964Z,21.30
2022-12-11T15:47:59.511Z,17.85
2022-12-11T15:50:28.608Z,20.30
2022-12-11T15:52:58.268Z,22.85
2022-12-11T15:55:29.692Z,19.05
2022-12-11T15:58:01.780Z,22.20
2022-12-11T16:00:29.523Z,18.92
2022-12-11T16:02:58.184Z,20.15
2022-12-11T16:05:28.771Z,22.23
2022-12-11T16:07:59.634Z,21.27
2022-12-11T16:10:28.232Z,21.48
2022-12-11T16:12:59.482Z,22.63
2022-12-11T16:15:27.858Z,23.55
2022-12-11T16:18:03.170Z,24.13
2022-12-11T16:23:01.249Z,18.52
2022-12-11T16:25:29.375Z,17.42
2022-12-11T16:28:01.254Z,18.80
2022-12-11T16:30:30.456Z,17.63
2022-12-11T16:32:58.361Z,19.13
2022-12-11T16:35:26.098Z,18.30
2022-12-11T16:37:55.384Z,18.02
2022-12-11T16:40:24.955Z,20.08
2022-12-11T16:42:52.882Z,19.42
2022-12-11T16:45:23.069Z,18.67
2022-12-11T16:47:50.798Z,20.88
2022-12-11T16:50:19.158Z,22.23
2022-12-11T16:52:47.213Z,21.95
2022-12-11T16:55:15.626Z,21.73
2022-12-11T16:57:47.261Z,22.05
2022-12-11T17:00:15.641Z,20.77
2022-12-11T17:02:43.459Z,19.45
2022-12-11T17:05:11.536Z,19.88
2022-12-11T17:07:40.355Z,21.95
2022-12-11T17:10:07.562Z,22.23
2022-12-11T17:12:35.519Z,21.98
2022-12-11T17:15:05.115Z,19.35
2022-12-11T17:17:33.061Z,18.67
2022-12-11T17:20:01.090Z,17.55
2022-12-11T17:22:28.978Z,20.02
2022-12-11T17:24:56.948Z,17.52
2022-12-11T17:27:24.890Z,18.80
2022-12-11T17:29:52.752Z,19.70
2022-12-11T17:32:22.117Z,19.63
2022-12-11T17:34:50.490Z,17.98
2022-12-11T17:37:18.682Z,17.90
2022-12-11T17:39:47.562Z,18.08
2022-12-11T17:42:15.517Z,18.85
2022-12-11T17:44:45.438Z,18.67
2022-12-11T17:47:13.432Z,16.98
2022-12-11T17:49:42.835Z,16.55
2022-12-11T17:52:10.877Z,16.77
2022-12-11T17:54:39.260Z,16.67
2022-12-11T17:57:07.609Z,15.55
2022-12-11T17:59:35.726Z,15.57
2022-12-11T18:02:03.837Z,15.80
2022-12-11T18:04:31.856Z,15.60
2022-12-11T18:07:01.395Z,16.10
2022-12-11T18:09:29.475Z,15.52
2022-12-11T18:11:57.321Z,16.25
2022-12-11T18:14:25.597Z,16.25
2022-12-11T18:16:53.710Z,16.52
2022-12-11T18:19:22.900Z,16.45
2022-12-11T18:21:51.213Z,17.90
2022-12-11T18:24:21.521Z,18.52
2022-12-11T18:26:49.752Z,18.75
2022-12-11T18:29:17.793Z,18.30
2022-12-11T18:31:45.717Z,18.17
2022-12-11T18:34:13.535Z,17.50
2022-12-11T18:36:41.863Z,16.55
2022-12-11T18:39:10.566Z,17.85
2022-12-11T18:41:39.933Z,17.42
2022-12-11T18:44:09.937Z,17.25
2022-12-11T18:46:39.384Z,16.95
2022-12-11T18:49:07.522Z,17.13
2022-12-11T18:51:35.938Z,17.48
2022-12-11T18:54:04.245Z,20.42
2022-12-11T18:56:32.056Z,18.70
2022-12-11T18:59:01.228Z,16.92
2022-12-11T19:01:30.134Z,18.83
2022-12-11T19:04:04.253Z,18.10
2022-12-11T19:09:04.442Z,18.85
2022-12-11T19:11:33.429Z,19.00
2022-12-11T19:14:02.555Z,19.98
2022-12-11T19:16:33.597Z,18.85
2022-12-11T19:19:03.114Z,19.90
2022-12-11T19:21:31.647Z,18.35
2022-12-11T19:23:59.675Z,19.10
2022-12-11T19:26:27.791Z,16.67
2022-12-11T19:28:56.944Z,20.42
2022-12-11T19:31:26.053Z,18.65
2022-12-11T19:33:54.267Z,18.52
2022-12-11T19:36:25.056Z,19.65
2022-12-11T19:38:59.302Z,16.55
2022-12-11T19:41:29.696Z,17.48
2022-12-11T19:44:00.697Z,19.02
2022-12-11T19:46:30.677Z,19.70
2022-12-11T19:48:59.940Z,19.33
2022-12-11T19:51:30.156Z,18.10
2022-12-11T19:53:58.406Z,16.10
2022-12-11T19:56:26.484Z,16.92
2022-12-11T19:58:54.368Z,17.88
2022-12-11T20:01:25.722Z,17.48
2022-12-11T20:03:56.660Z,17.23
2022-12-11T20:06:25.149Z,18.20
2022-12-11T20:08:53.161Z,18.80
2022-12-11T20:11:21.058Z,22.70
2022-12-11T20:13:49.413Z,18.30
2022-12-11T20:16:28.849Z,19.20
2022-12-11T20:19:08.412Z,21.27
2022-12-11T20:21:36.230Z,19.33
2022-12-11T20:24:04.450Z,21.08
2022-12-11T20:26:36.006Z,20.67
2022-12-11T20:29:07.225Z,21.17
2022-12-11T20:31:36.681Z,21.10
2022-12-11T20:34:05.466Z,21.42
2022-12-11T20:36:35.258Z,20.25
2022-12-11T20:39:03.172Z,20.45
2022-12-11T20:41:30.950Z,19.38
2022-12-11T20:43:59.363Z,20.73
2022-12-11T20:46:28.313Z,20.63
2022-12-11T20:48:58.469Z,18.95
2022-12-11T20:51:26.790Z,19.92
2022-12-11T20:53:59.353Z,20.17
2022-12-11T20:56:29.520Z,19.42
2022-12-11T20:58:58.222Z,20.52
2022-12-11T21:01:28.159Z,18.80
2022-12-11T21:03:56.354Z,19.13
2022-12-11T21:06:26.477Z,19.35
2022-12-11T21:08:55.884Z,19.52
2022-12-11T21:11:23.846Z,19.02
2022-12-11T21:13:52.021Z,18.48
2022-12-11T21:16:20.646Z,17.52
2022-12-11T21:18:48.549Z,17.77
2022-12-11T21:21:16.902Z,17.77
2022-12-11T21:23:45.021Z,16.25
2022-12-11T21:26:15.456Z,18.20
2022-12-11T21:28:43.538Z,19.00
2022-12-11T21:31:14.605Z,19.42
2022-12-11T21:33:42.517Z,17.10
2022-12-11T21:36:13.133Z,16.15
2022-12-11T21:38:44.636Z,16.95
2022-12-11T21:41:15.797Z,16.02
2022-12-11T21:44:14.532Z,16.15
2022-12-11T21:46:32.213Z,14.50
2022-12-11T21:49:03.118Z,17.98
2022-12-11T21:51:36.931Z,15.48
2022-12-11T21:54:10.226Z,16.63
2022-12-11T21:56:39.317Z,21.70
2022-12-11T21:59:07.518Z,19.23
2022-12-11T22:01:38.206Z,17.35
2022-12-11T22:04:06.751Z,15.98
2022-12-11T22:06:34.838Z,15.20
2022-12-11T22:09:02.751Z,15.60
2022-12-11T22:11:33.295Z,15.27
2022-12-11T22:14:03.332Z,14.77
2022-12-11T22:16:38.935Z,14.82
2022-12-11T22:19:06.723Z,14.82
2022-12-11T22:21:34.748Z,14.63
2022-12-11T22:24:02.529Z,15.13
2022-12-11T22:26:30.621Z,15.95
2022-12-11T22:28:59.009Z,14.88
2022-12-11T22:31:28.727Z,14.70
2022-12-11T22:33:57.175Z,17.60
2022-12-11T22:36:26.630Z,19.00
2022-12-11T22:38:54.960Z,19.67
2022-12-11T22:41:26.573Z,21.45
2022-12-11T22:43:54.991Z,20.08
2022-12-11T22:46:25.303Z,19.60
2022-12-11T22:48:54.802Z,18.10
2022-12-11T22:51:23.938Z,20.88
2022-12-11T22:53:52.000Z,18.23
2022-12-11T22:56:19.761Z,19.80
2022-12-11T23:03:14.112Z,21.42
2022-12-11T23:05:43.242Z,22.88
2022-12-11T23:08:11.092Z,21.17
2022-12-11T23:10:40.411Z,19.00
2022-12-11T23:13:08.176Z,20.00
2022-12-11T23:15:35.958Z,18.08
2022-12-11T23:18:03.825Z,16.80
2022-12-11T23:20:32.898Z,18.13
2022-12-11T23:23:00.618Z,18.77
2022-12-11T23:25:28.932Z,19.67
2022-12-11T23:27:56.706Z,17.05
2022-12-11T23:30:24.974Z,17.17
2022-12-11T23:32:52.715Z,17.00
2022-12-11T23:35:20.418Z,16.40
2022-12-11T23:37:49.484Z,16.35
2022-12-11T23:40:17.332Z,16.77
2022-12-11T23:42:44.985Z,17.95
2022-12-11T23:45:12.915Z,16.58
2022-12-11T23:47:40.734Z,16.55
2022-12-11T23:50:10.867Z,15.63
2022-12-11T23:52:41.470Z,16.15
2022-12-11T23:55:12.096Z,17.75
2022-12-11T23:57:39.972Z,15.68
